Time;durP1;ratioP1;P1;durP2;ratioP2;P2;SDS_P1;SDS_P2;PMS_P1;PMS_P2;Temp;Humidity;BMP_temperature;BMP_pressure;BME280_temperature;BME280_humidity;BME280_pressure;Samples;Min_cycle;Max_cycle;Signal;HPM_P1;HPM_P2
2021/12/24 00:01:28;;;;;;;94.18;44.60;;;;;;;5.81;98.86;100425.41;5049945;28;20040;-87
2021/12/24 00:03:53;;;;;;;88.15;43.70;;;;;;;5.84;99.17;100427.09;5049647;28;20072;-88
2021/12/24 00:06:19;;;;;;;85.53;42.60;;;;;;;5.84;98.58;100425.38;5047529;28;20037;-88
2021/12/24 00:08:46;;;;;;;76.75;41.47;;;;;;;5.85;98.65;100414.16;5051169;28;20021;-87
2021/12/24 00:11:14;;;;;;;72.78;40.40;;;;;;;5.84;98.94;100417.63;5048554;28;20117;-88
2021/12/24 00:13:43;;;;;;;77.55;40.80;;;;;;;5.86;98.97;100408.13;5048475;28;20036;-89
2021/12/24 00:16:18;;;;;;;78.47;40.88;;;;;;;5.85;99.06;100421.91;5047676;28;20025;-88
2021/12/24 00:18:47;;;;;;;70.82;40.03;;;;;;;5.86;98.69;100415.03;5050410;28;20107;-88
2021/12/24 00:37:41;;;;;;;64.72;38.15;;;;;;;5.96;98.78;100403.69;5048387;28;20549;-88
2021/12/24 00:40:19;;;;;;;65.03;37.70;;;;;;;5.97;98.69;100399.41;5048093;28;20040;-87
2021/12/24 00:42:54;;;;;;;63.38;36.53;;;;;;;5.99;98.84;100408.81;5049517;28;20027;-88
2021/12/24 00:45:23;;;;;;;62.28;37.25;;;;;;;6.01;98.83;100403.66;5049990;28;20044;-88
2021/12/24 00:47:49;;;;;;;59.90;36.78;;;;;;;6.03;99.16;100395.03;5049341;28;20388;-87
2021/12/24 00:50:19;;;;;;;57.50;36.83;;;;;;;6.05;99.04;100395.00;5051313;28;20353;-87
2021/12/24 00:52:48;;;;;;;53.08;35.25;;;;;;;6.05;99.03;100389.84;5048607;28;20116;-88
2021/12/24 00:55:20;;;;;;;52.83;35.42;;;;;;;6.07;99.03;100390.66;5045837;28;20255;-87
2021/12/24 00:57:46;;;;;;;;;;;;;;;6.08;98.91;100388.06;5048811;28;20017;-88
2021/12/24 01:00:16;;;;;;;51.60;34.65;;;;;;;6.11;98.65;100378.56;5050772;28;19959;-87
2021/12/24 01:02:43;;;;;;;59.13;38.13;;;;;;;6.11;98.52;100387.19;5047872;28;20119;-87
2021/12/24 01:05:09;;;;;;;59.95;39.45;;;;;;;6.14;98.96;100387.13;5048974;28;20045;-88
2021/12/24 01:07:34;;;;;;;58.97;40.35;;;;;;;6.14;98.96;100386.28;5047798;28;20116;-88
2021/12/24 01:10:00;;;;;;;59.13;39.55;;;;;;;6.15;98.84;100386.22;5048279;28;20108;-87
2021/12/24 01:12:26;;;;;;;58.95;39.47;;;;;;;6.17;98.92;100381.91;5047310;28;20103;-88
2021/12/24 01:14:51;;;;;;;57.70;38.65;;;;;;;6.17;98.97;100381.91;5044763;28;20017;-90
2021/12/24 01:20:10;;;;;;;56.15;39.50;;;;;;;6.20;99.16;100378.44;5049191;28;20043;-88
2021/12/24 01:23:43;;;;;;;59.85;39.25;;;;;;;6.21;98.87;100372.41;5047786;28;20115;-88
2021/12/24 01:25:44;;;;;;;57.95;39.85;;;;;;;6.22;99.14;100372.38;5039728;28;20036;-89
2021/12/24 01:44:35;;;;;;;63.92;42.38;;;;;;;6.30;99.42;100372.25;5046983;28;20141;-88
2021/12/24 01:47:05;;;;;;;67.47;43.55;;;;;;;6.33;99.21;100374.78;5048134;28;20034;-88
2021/12/24 01:49:31;;;;;;;69.45;44.90;;;;;;;6.34;99.30;100376.50;5048295;28;20150;-89
2021/12/24 01:51:57;;;;;;;71.53;45.47;;;;;;;6.36;99.58;100384.22;5052212;28;20112;-89
2021/12/24 01:54:23;;;;;;;76.22;46.67;;;;;;;6.38;99.35;100379.88;5048826;28;20013;-88
2021/12/24 01:56:49;;;;;;;76.78;47.30;;;;;;;6.41;100.00;100372.06;5045704;28;20195;-89
2021/12/24 01:59:15;;;;;;;79.53;48.25;;;;;;;6.44;99.42;100369.44;5046513;28;20033;-87
2021/12/24 02:01:40;;;;;;;82.88;49.22;;;;;;;6.46;99.71;100383.19;5048688;28;20025;-89
2021/12/24 02:04:06;;;;;;;85.85;50.83;;;;;;;6.49;99.91;100375.38;5044630;28;20067;-88
2021/12/24 02:06:32;;;;;;;87.82;51.70;;;;;;;6.53;99.75;100369.28;5047616;28;20037;-89
2021/12/24 02:08:57;;;;;;;89.53;52.83;;;;;;;6.53;99.74;100364.13;5050517;28;20028;-89
2021/12/24 02:11:23;;;;;;;99.38;54.40;;;;;;;6.56;99.90;100364.94;5048170;28;20021;-88
2021/12/24 02:13:49;;;;;;;95.40;54.60;;;;;;;6.57;99.89;100375.28;5048407;28;20020;-88
2021/12/24 02:29:39;;;;;;;99.95;56.35;;;;;;;6.70;99.74;100372.47;5054269;28;20040;-87
2021/12/24 02:32:05;;;;;;;104.45;56.78;;;;;;;6.73;100.00;100368.09;5052541;28;20066;-88
2021/12/24 02:34:31;;;;;;;98.43;55.45;;;;;;;6.72;100.00;100366.38;5046335;28;20021;-89
2021/12/24 02:36:56;;;;;;;106.47;57.35;;;;;;;6.75;100.00;100363.75;5050423;28;20420;-87
2021/12/24 02:39:21;;;;;;;96.80;54.38;;;;;;;6.76;100.00;100368.03;5052853;28;20025;-88
2021/12/24 02:41:47;;;;;;;94.97;55.00;;;;;;;6.76;100.00;100365.47;5051357;28;20134;-88
2021/12/24 02:44:12;;;;;;;94.07;54.15;;;;;;;6.78;100.00;100361.13;5048939;28;20037;-88
2021/12/24 02:47:05;;;;;;;100.05;56.65;;;;;;;6.78;100.00;100361.13;5053635;28;20033;-89
2021/12/24 02:54:54;;;;;;;102.10;58.05;;;;;;;6.83;100.00;100355.84;5051270;28;20040;-87
2021/12/24 02:57:22;;;;;;;113.75;58.92;;;;;;;6.84;100.00;100350.66;5051688;28;20029;-88
2021/12/24 02:59:58;;;;;;;110.10;59.47;;;;;;;6.87;100.00;100351.47;5051757;28;20108;-88
2021/12/24 03:02:26;;;;;;;107.13;58.78;;;;;;;6.88;100.00;100337.66;5050646;28;20021;-88
2021/12/24 03:04:51;;;;;;;120.50;60.83;;;;;;;6.91;100.00;100347.97;5051534;28;20049;-88
2021/12/24 03:07:17;;;;;;;121.25;61.83;;;;;;;6.91;100.00;100342.78;5052807;28;20091;-89
2021/12/24 03:09:42;;;;;;;125.88;62.97;;;;;;;6.91;100.00;100342.78;5053859;28;20055;-88
2021/12/24 03:12:08;;;;;;;129.35;62.03;;;;;;;6.93;100.00;100346.19;5048494;28;20052;-88
2021/12/24 03:14:33;;;;;;;130.95;61.60;;;;;;;6.93;100.00;100335.84;5050690;28;20033;-88
2021/12/24 03:17:01;;;;;;;132.00;65.50;;;;;;;6.97;100.00;100337.50;5051668;28;20025;-87
2021/12/24 03:19:31;;;;;;;129.00;63.08;;;;;;;6.97;100.00;100337.50;5052309;28;20427;-89
2021/12/24 03:22:06;;;;;;;132.77;65.43;;;;;;;6.96;100.00;100335.81;5051416;28;20045;-88
2021/12/24 03:24:35;;;;;;;125.45;62.67;;;;;;;6.97;100.00;100346.09;5051406;28;20029;-88
2021/12/24 03:27:00;;;;;;;136.15;64.40;;;;;;;6.97;100.00;100342.69;5053098;28;20329;-88
2021/12/24 03:29:25;;;;;;;145.80;67.88;;;;;;;6.97;100.00;100340.09;5049812;28;20073;-88
2021/12/24 03:31:51;;;;;;;138.80;64.10;;;;;;;6.99;100.00;100351.28;5052301;28;20473;-88
2021/12/24 03:34:19;;;;;;;142.27;64.97;;;;;;;6.99;100.00;100351.28;5049862;28;20036;-88
2021/12/24 03:36:45;;;;;;;141.45;67.05;;;;;;;6.99;100.00;100352.09;5051336;28;20025;-88
2021/12/24 03:39:12;;;;;;;157.68;66.63;;;;;;;7.00;100.00;100352.97;5049793;28;20036;-88
2021/12/24 03:41:37;;;;;;;143.10;66.35;;;;;;;7.03;100.00;100357.22;5049628;28;20166;-88
2021/12/24 03:44:04;;;;;;;138.10;64.07;;;;;;;7.03;100.00;100363.25;5050955;28;20147;-89
2021/12/24 03:46:42;;;;;;;137.73;64.47;;;;;;;7.06;100.00;100358.00;5049639;28;20037;-88
2021/12/24 03:49:16;;;;;;;135.02;61.50;;;;;;;7.08;100.00;100358.00;5049145;28;20032;-87
2021/12/24 03:51:56;;;;;;;135.70;61.88;;;;;;;7.07;100.00;100358.88;5050429;28;20021;-88
2021/12/24 03:57:05;;;;;;;127.38;60.53;;;;;;;7.09;100.00;100365.72;5050017;28;20430;-88
2021/12/24 03:59:30;;;;;;;139.73;60.20;;;;;;;7.10;100.00;100361.38;5050750;28;20123;-89
2021/12/24 04:01:56;;;;;;;123.30;58.70;;;;;;;7.10;100.00;100362.25;5049141;28;20025;-88
2021/12/24 04:04:21;;;;;;;126.93;57.92;;;;;;;7.11;100.00;100361.38;5046841;28;20041;-88
2021/12/24 04:06:47;;;;;;;117.95;54.95;;;;;;;7.13;100.00;100358.75;5049403;28;20033;-89
2021/12/24 04:09:13;;;;;;;110.75;53.40;;;;;;;7.12;100.00;100357.03;5050351;28;20158;-88
2021/12/24 04:11:39;;;;;;;103.80;50.05;;;;;;;7.14;100.00;100355.28;5049396;28;20112;-87
2021/12/24 04:14:05;;;;;;;101.85;49.38;;;;;;;7.16;100.00;100360.44;5048723;28;20021;-89
2021/12/24 04:16:30;;;;;;;87.90;46.50;;;;;;;7.18;100.00;100356.06;5050791;28;20036;-88
2021/12/24 04:24:52;;;;;;;78.80;42.13;;;;;;;7.20;100.00;100354.31;5048617;28;20588;-88
2021/12/24 04:27:17;;;;;;;77.18;40.67;;;;;;;7.20;99.88;100354.31;5048166;28;20024;-88
2021/12/24 04:29:43;;;;;;;75.93;39.42;;;;;;;7.19;99.76;100365.53;5047200;28;20021;-88
2021/12/24 04:32:12;;;;;;;72.47;38.13;;;;;;;7.19;99.52;100362.94;5047928;28;20349;-88
2021/12/24 04:34:39;;;;;;;72.40;36.03;;;;;;;7.22;99.61;100361.16;5048198;28;20017;-89
2021/12/24 04:50:57;;;;;;;68.35;35.33;;;;;;;7.23;99.50;100365.47;5050547;28;20028;-88
2021/12/24 04:51:12;;;;;;;53.78;30.92;;;;;;;7.27;98.72;100355.91;5049080;28;20182;-88
2021/12/24 05:04:26;;;;;;;49.22;25.85;;;;;;;7.29;98.10;100349.78;5049992;28;20492;-88
2021/12/24 05:06:57;;;;;;;49.30;25.20;;;;;;;7.29;98.15;100339.44;5033785;28;20479;-86
2021/12/24 05:09:24;;;;;;;45.45;24.83;;;;;;;7.30;98.29;100350.66;5047549;28;20028;-88
2021/12/24 05:11:50;;;;;;;50.40;24.55;;;;;;;7.31;97.84;100351.50;5049421;28;20020;-87
2021/12/24 05:14:15;;;;;;;47.72;23.90;;;;;;;7.32;97.89;100351.50;5047899;28;20083;-88
2021/12/24 05:16:50;;;;;;;44.38;22.42;;;;;;;7.33;97.69;100355.78;5050550;28;20095;-88
2021/12/24 05:21:47;;;;;;;;;;;;;;;7.37;97.57;100356.56;5049091;28;20131;-87
2021/12/24 05:24:16;;;;;;;41.30;20.42;;;;;;;7.31;97.57;100354.97;5049588;28;20370;-87
2021/12/24 05:26:51;;;;;;;45.65;20.85;;;;;;;7.32;97.26;100358.38;5047135;28;20544;-89
2021/12/24 05:29:17;;;;;;;41.63;19.33;;;;;;;7.31;97.23;100360.13;5048668;28;20025;-88
2021/12/24 05:31:44;;;;;;;42.33;19.30;;;;;;;7.30;97.18;100361.00;5049225;28;20040;-89
2021/12/24 05:34:09;;;;;;;39.70;18.30;;;;;;;7.30;97.21;100368.78;5050234;28;20052;-88
2021/12/24 05:36:35;;;;;;;39.50;18.27;;;;;;;7.30;97.10;100366.19;5049510;28;20037;-88
2021/12/24 05:39:00;;;;;;;35.60;18.75;;;;;;;7.30;96.93;100363.59;5050614;28;20039;-87
2021/12/24 05:41:26;;;;;;;35.65;18.15;;;;;;;7.31;96.85;100375.66;5050767;28;20025;-88
2021/12/24 05:43:52;;;;;;;35.45;18.08;;;;;;;7.30;96.99;100381.72;5048494;28;20060;-88
2021/12/24 05:46:18;;;;;;;38.17;18.13;;;;;;;7.29;97.05;100380.00;5050603;28;20119;-89
2021/12/24 05:48:43;;;;;;;34.95;18.52;;;;;;;7.29;96.74;100380.84;5050069;28;20109;-88
2021/12/24 05:51:09;;;;;;;40.22;19.60;;;;;;;7.29;96.66;100385.19;5050147;28;20029;-89
2021/12/24 05:53:36;;;;;;;39.90;19.35;;;;;;;7.29;96.75;100386.03;5047384;28;20028;-88
2021/12/24 05:56:02;;;;;;;39.95;18.58;;;;;;;7.28;96.80;100379.13;5048763;28;20416;-88
2021/12/24 05:58:27;;;;;;;36.95;19.58;;;;;;;7.30;96.26;100376.53;5046152;28;20128;-89
2021/12/24 06:00:52;;;;;;;44.78;20.20;;;;;;;7.29;96.37;100380.00;5047275;28;20017;-89
2021/12/24 06:03:18;;;;;;;42.83;19.35;;;;;;;7.27;96.39;100377.44;5046639;28;20107;-87
2021/12/24 06:05:44;;;;;;;42.00;19.13;;;;;;;7.28;96.04;100391.25;5046774;28;20107;-88
2021/12/24 06:08:10;;;;;;;38.00;18.75;;;;;;;7.26;95.99;100382.66;5048392;28;20114;-88
2021/12/24 06:10:36;;;;;;;36.33;17.60;;;;;;;7.27;95.73;100392.13;5048255;28;20473;-89
2021/12/24 06:13:03;;;;;;;38.15;18.20;;;;;;;7.26;95.69;100390.41;5047367;28;20544;-89
2021/12/24 06:15:29;;;;;;;37.40;17.08;;;;;;;7.25;95.58;100379.22;5049114;28;20469;-86
2021/12/24 06:17:58;;;;;;;36.05;16.75;;;;;;;7.25;95.49;100386.13;5046868;28;20036;-88
2021/12/24 06:20:26;;;;;;;34.55;16.65;;;;;;;7.25;95.07;100399.06;5047672;28;20017;-89
2021/12/24 06:22:51;;;;;;;33.92;16.58;;;;;;;7.23;95.36;100390.47;5046901;28;20025;-90
2021/12/24 06:25:19;;;;;;;35.38;16.00;;;;;;;7.27;94.97;100389.53;5048272;28;20372;-88
2021/12/24 06:27:46;;;;;;;35.72;16.00;;;;;;;7.23;95.02;100391.34;5047633;28;20024;-87
2021/12/24 06:30:12;;;;;;;33.00;15.65;;;;;;;7.22;94.90;100394.81;5046903;28;20047;-89
2021/12/24 06:32:38;;;;;;;34.35;16.02;;;;;;;7.24;94.89;100393.03;5047705;28;20025;-88
2021/12/24 06:35:05;;;;;;;41.00;17.05;;;;;;;7.22;95.00;100392.22;5048398;28;20075;-89
2021/12/24 06:37:30;;;;;;;33.75;16.63;;;;;;;7.22;94.90;100392.22;5046553;28;20109;-88
2021/12/24 06:39:55;;;;;;;34.83;16.65;;;;;;;7.22;94.86;100393.94;5050418;28;20021;-87
2021/12/24 06:42:21;;;;;;;42.88;16.55;;;;;;;7.22;94.90;100386.16;5047422;28;20025;-87
2021/12/24 06:44:47;;;;;;;39.70;16.88;;;;;;;7.21;94.81;100394.81;5048279;28;20063;-87
2021/12/24 06:47:12;;;;;;;41.10;16.00;;;;;;;7.21;94.59;100387.91;5047709;28;20099;-88
2021/12/24 06:49:37;;;;;;;34.70;16.27;;;;;;;7.20;94.73;100391.38;5048847;28;20040;-89
2021/12/24 06:52:03;;;;;;;34.92;16.65;;;;;;;7.20;94.76;100385.34;5045834;28;20060;-88
2021/12/24 06:54:30;;;;;;;36.75;16.17;;;;;;;7.20;94.76;100393.09;5047831;28;20025;-88
2021/12/24 06:56:55;;;;;;;39.00;16.85;;;;;;;7.20;94.57;100387.94;5048267;28;20017;-88
2021/12/24 06:59:21;;;;;;;37.40;16.20;;;;;;;7.18;94.45;100387.97;5048803;28;20043;-88
2021/12/24 07:01:46;;;;;;;42.85;16.85;;;;;;;7.19;94.53;100383.63;5046835;28;20509;-89
2021/12/24 07:04:11;;;;;;;41.15;15.98;;;;;;;7.19;94.37;100383.63;5046316;28;20140;-89
2021/12/24 07:06:43;;;;;;;35.60;16.42;;;;;;;7.19;94.31;100387.09;5045975;28;20029;-88
2021/12/24 07:09:08;;;;;;;38.17;16.17;;;;;;;7.19;94.20;100386.22;5048740;28;20023;-89
2021/12/24 07:11:34;;;;;;;39.72;16.08;;;;;;;7.21;94.17;100387.06;5048884;28;20029;-88
2021/12/24 07:13:59;;;;;;;35.30;15.70;;;;;;;7.20;94.12;100383.63;5047260;28;20033;-88
2021/12/24 07:16:24;;;;;;;33.00;15.93;;;;;;;7.19;94.07;100387.09;5049226;28;20464;-88
2021/12/24 07:18:49;;;;;;;35.72;16.05;;;;;;;7.19;94.14;100388.81;5048979;28;20032;-88
2021/12/24 07:21:15;;;;;;;34.85;15.75;;;;;;;7.18;93.93;100387.09;5046252;28;20033;-88
2021/12/24 07:23:40;;;;;;;36.45;16.13;;;;;;;7.18;94.13;100390.56;5049533;28;20029;-88
2021/12/24 07:26:05;;;;;;;36.08;16.27;;;;;;;7.18;94.27;100385.38;5049832;28;20028;-87
2021/12/24 07:28:34;;;;;;;31.73;15.55;;;;;;;7.17;94.20;100390.59;5048451;28;20038;-89
2021/12/24 07:30:59;;;;;;;36.22;15.60;;;;;;;7.18;94.13;100397.44;5049023;28;20029;-88
2021/12/24 07:33:24;;;;;;;35.92;16.48;;;;;;;7.17;94.01;100406.97;5051739;28;20037;-88
2021/12/24 07:35:50;;;;;;;39.25;16.70;;;;;;;7.16;94.03;100413.03;5050869;28;20116;-88
2021/12/24 07:38:15;;;;;;;34.88;15.18;;;;;;;7.17;94.02;100417.31;5053260;28;20065;-88
2021/12/24 07:40:42;;;;;;;35.47;16.17;;;;;;;7.17;94.21;100411.31;5053651;28;20041;-88
2021/12/24 07:43:08;;;;;;;39.80;16.42;;;;;;;7.18;93.92;100407.81;5049651;28;21711;-87
2021/12/24 07:45:33;;;;;;;32.58;16.40;;;;;;;7.19;93.88;100409.50;5050232;28;20025;-88
2021/12/24 07:53:05;;;;;;;34.67;15.85;;;;;;;7.20;93.72;100400.88;5053503;28;20131;-88
2021/12/24 07:55:30;;;;;;;40.90;16.85;;;;;;;7.20;93.58;100408.63;5052993;28;20029;-89
2021/12/24 07:57:56;;;;;;;37.97;16.88;;;;;;;7.18;93.85;100402.63;5053861;28;20396;-89
2021/12/24 08:00:23;;;;;;;41.10;17.13;;;;;;;7.17;93.71;100400.94;5052789;28;20056;-89
2021/12/24 08:02:49;;;;;;;35.83;16.55;;;;;;;7.18;93.80;100405.22;5051358;28;20025;-88
2021/12/24 08:05:18;;;;;;;37.85;15.93;;;;;;;7.16;93.70;100407.84;5053651;28;20458;-89
2021/12/24 08:07:44;;;;;;;33.00;15.38;;;;;;;7.17;93.34;100412.13;5050780;28;20487;-89
2021/12/24 08:10:09;;;;;;;37.35;15.05;;;;;;;7.19;93.45;100412.09;5052744;28;20143;-89
2021/12/24 08:12:34;;;;;;;45.90;16.13;;;;;;;7.20;93.28;100411.22;5052881;28;20112;-88
2021/12/24 08:14:59;;;;;;;35.75;15.95;;;;;;;7.18;93.23;100408.66;5051815;28;20442;-89
2021/12/24 08:17:25;;;;;;;35.67;14.75;;;;;;;7.21;93.19;100402.56;5051702;28;20031;-88
2021/12/24 08:19:50;;;;;;;34.28;14.60;;;;;;;7.22;92.99;100399.09;5058028;28;20484;-89
2021/12/24 08:22:15;;;;;;;34.35;14.90;;;;;;;7.21;92.84;100392.22;5052589;28;20027;-89
2021/12/24 08:24:41;;;;;;;36.75;13.73;;;;;;;7.24;92.69;100377.53;5053201;28;20392;-87
2021/12/24 08:27:08;;;;;;;32.70;14.20;;;;;;;7.24;92.57;100390.47;5053128;28;20049;-88
2021/12/24 08:29:33;;;;;;;30.58;14.60;;;;;;;7.24;92.76;100387.00;5055292;28;20445;-88
2021/12/24 08:31:59;;;;;;;36.05;15.10;;;;;;;7.27;92.41;100392.13;5052923;28;20029;-88
2021/12/24 08:34:24;;;;;;;38.13;14.48;;;;;;;7.28;92.52;100388.66;5052729;28;20033;-88
2021/12/24 08:36:52;;;;;;;31.70;14.60;;;;;;;7.28;92.41;100404.19;5052354;28;20025;-88
2021/12/24 08:39:19;;;;;;;37.90;15.57;;;;;;;7.28;92.40;100399.00;5052936;28;20111;-88
2021/12/24 08:41:52;;;;;;;46.58;15.93;;;;;;;7.29;92.56;100401.56;5053093;28;20574;-88
2021/12/24 08:44:18;;;;;;;38.15;16.15;;;;;;;7.31;92.42;100408.44;5051209;28;20031;-88
2021/12/24 08:46:43;;;;;;;35.30;15.98;;;;;;;7.31;92.72;100400.66;5052678;28;20032;-88
2021/12/24 08:49:08;;;;;;;39.15;16.40;;;;;;;7.32;92.29;100400.66;5051009;28;20032;-88
2021/12/24 08:51:33;;;;;;;35.80;16.38;;;;;;;7.31;92.39;100390.31;5052432;28;20472;-88
2021/12/24 08:53:59;;;;;;;45.20;17.15;;;;;;;7.32;92.44;100392.03;5052245;28;20025;-88
2021/12/24 08:56:24;;;;;;;45.92;18.52;;;;;;;7.31;92.19;100388.59;5052921;28;20017;-88
2021/12/24 08:58:50;;;;;;;39.50;17.48;;;;;;;7.31;92.34;100393.78;5050953;28;20032;-88
2021/12/24 09:01:16;;;;;;;39.15;18.05;;;;;;;7.32;92.42;100386.84;5049179;28;20036;-89
2021/12/24 09:03:41;;;;;;;39.83;18.50;;;;;;;7.32;92.18;100379.97;5047435;28;20059;-88
2021/12/24 09:06:07;;;;;;;38.22;17.65;;;;;;;7.33;92.24;100376.50;5046258;28;20029;-89
2021/12/24 09:08:32;;;;;;;36.33;17.63;;;;;;;7.33;92.64;100381.66;5049043;28;20045;-88
2021/12/24 09:10:57;;;;;;;41.40;17.40;;;;;;;7.36;92.69;100386.75;5045879;28;20106;-89
2021/12/24 09:13:23;;;;;;;42.05;17.48;;;;;;;7.37;92.21;100385.03;5045783;28;20104;-88
2021/12/24 09:15:48;;;;;;;40.40;16.52;;;;;;;7.36;92.30;100381.56;5048124;28;20032;-89
2021/12/24 09:18:13;;;;;;;37.72;16.05;;;;;;;7.37;92.04;100378.09;5043921;28;20071;-88
2021/12/24 09:20:42;;;;;;;40.10;17.00;;;;;;;7.38;91.75;100382.41;5048013;28;20388;-88
2021/12/24 09:23:09;;;;;;;40.40;16.30;;;;;;;7.38;92.02;100382.41;5045765;28;20472;-88
2021/12/24 09:25:34;;;;;;;37.22;16.90;;;;;;;7.40;92.00;100382.38;5048982;28;20025;-88
2021/12/24 09:28:01;;;;;;;37.60;16.05;;;;;;;7.39;92.08;100381.53;5047111;28;20031;-88
2021/12/24 09:30:30;;;;;;;30.70;15.32;;;;;;;7.39;91.64;100381.53;5043505;28;20100;-87
2021/12/24 09:32:55;;;;;;;40.47;16.23;;;;;;;7.40;91.63;100388.41;5049743;28;20036;-88
2021/12/24 09:35:22;;;;;;;32.85;15.52;;;;;;;7.39;91.82;100391.88;5053397;28;20025;-87
2021/12/24 09:37:48;;;;;;;33.63;15.20;;;;;;;7.41;91.78;100389.28;5064443;28;20032;-88
2021/12/24 09:40:15;;;;;;;38.55;16.08;;;;;;;7.39;91.47;100384.09;5052110;28;20021;-87
2021/12/24 09:42:41;;;;;;;35.03;15.18;;;;;;;7.40;91.40;100388.41;5044202;28;20104;-87
2021/12/24 09:45:08;;;;;;;34.33;15.10;;;;;;;7.39;91.36;100391.03;5048149;28;20032;-87
2021/12/24 09:47:33;;;;;;;34.13;15.75;;;;;;;7.39;91.45;100386.69;5045623;28;20111;-87
2021/12/24 09:49:59;;;;;;;39.80;16.13;;;;;;;7.40;91.73;100387.56;5044182;28;20531;-88
2021/12/24 09:52:26;;;;;;;28.88;14.90;;;;;;;7.38;91.84;100379.81;5048879;28;20031;-88
2021/12/24 09:54:52;;;;;;;46.40;16.15;;;;;;;7.39;91.56;100385.84;5044471;28;20036;-88
2021/12/24 09:57:18;;;;;;;34.78;14.70;;;;;;;7.40;91.78;100377.22;5046571;28;20037;-88
2021/12/24 09:59:43;;;;;;;35.92;15.57;;;;;;;7.41;91.47;100379.75;5047518;28;20452;-88
2021/12/24 10:02:15;;;;;;;40.22;16.13;;;;;;;7.43;91.58;100375.41;5045943;28;20031;-87
2021/12/24 10:04:42;;;;;;;36.10;14.82;;;;;;;7.43;91.31;100378.00;5045145;28;20056;-89
2021/12/24 10:07:16;;;;;;;33.28;14.02;;;;;;;7.44;91.46;100374.53;5044304;28;20052;-89
2021/12/24 10:09:44;;;;;;;30.27;13.93;;;;;;;7.46;91.27;100373.66;5045975;28;20025;-88
2021/12/24 10:12:13;;;;;;;33.72;13.80;;;;;;;7.46;91.04;100377.06;5047658;28;20020;-88
2021/12/24 10:14:51;;;;;;;34.00;14.02;;;;;;;7.48;91.08;100374.47;5041547;28;20075;-88
2021/12/24 10:17:35;;;;;;;33.88;13.90;;;;;;;7.47;91.11;100367.59;5047337;28;20064;-88
2021/12/24 10:20:12;;;;;;;32.88;15.18;;;;;;;7.50;90.91;100377.88;5045354;28;20167;-88
2021/12/24 10:22:43;;;;;;;35.60;15.07;;;;;;;7.51;90.70;100377.84;5182922;22;20115;-87
2021/12/24 10:25:12;;;;;;;35.45;14.57;;;;;;;7.51;90.70;100380.44;5054776;28;20037;-86
2021/12/24 10:27:38;;;;;;;34.55;14.77;;;;;;;7.54;90.71;100376.91;5051061;28;20032;-85
2021/12/24 10:30:27;;;;;;;34.22;14.95;;;;;;;7.58;90.81;100375.97;5051384;28;20024;-86
2021/12/24 10:32:55;;;;;;;31.60;14.68;;;;;;;7.58;90.63;100373.38;5054671;28;20536;-86
2021/12/24 10:35:24;;;;;;;37.83;15.65;;;;;;;7.61;90.68;100373.31;5053492;28;20376;-86
2021/12/24 10:38:08;;;;;;;36.53;15.55;;;;;;;7.66;90.63;100361.16;5053892;28;20032;-86
2021/12/24 10:40:33;;;;;;;34.67;15.75;;;;;;;7.66;90.27;100363.72;5051269;28;20017;-85
2021/12/24 10:42:59;;;;;;;39.75;16.27;;;;;;;7.68;90.43;100367.16;5053912;28;20041;-86
2021/12/24 10:45:24;;;;;;;36.13;16.05;;;;;;;7.69;90.48;100368.81;5054744;28;20436;-86
2021/12/24 10:47:50;;;;;;;34.83;15.90;;;;;;;7.70;90.59;100365.34;5051935;28;20028;-86
2021/12/24 10:50:29;;;;;;;35.80;16.40;;;;;;;7.71;90.49;100367.06;5055837;28;20037;-86
2021/12/24 10:55:44;;;;;;;37.40;17.13;;;;;;;7.72;90.41;100365.34;5053491;28;20033;-86
2021/12/24 10:58:16;;;;;;;41.00;17.13;;;;;;;7.72;90.58;100363.59;5052141;28;20032;-86
2021/12/24 11:00:48;;;;;;;;;;;;;;;7.80;90.87;100362.56;5058042;28;20032;-86
2021/12/24 11:03:22;;;;;;;43.33;16.95;;;;;;;7.72;90.06;100368.75;5038557;28;20357;-85
2021/12/24 11:05:51;;;;;;;38.55;16.55;;;;;;;7.72;90.25;100368.75;5052907;28;20021;-85
2021/12/24 11:08:19;;;;;;;40.85;17.23;;;;;;;7.72;90.26;100373.94;5056938;28;20060;-86
2021/12/24 11:10:47;;;;;;;44.00;17.50;;;;;;;7.70;90.41;100362.75;5055267;28;20075;-86
2021/12/24 11:13:16;;;;;;;41.75;17.23;;;;;;;7.70;90.24;100360.16;5054063;28;20021;-86
2021/12/24 11:15:47;;;;;;;36.17;16.73;;;;;;;7.69;90.51;100362.81;5055764;28;20104;-85
2021/12/24 11:18:24;;;;;;;42.22;17.40;;;;;;;7.70;90.44;100370.53;5055244;28;20471;-85
2021/12/24 11:21:00;;;;;;;40.38;17.65;;;;;;;7.70;90.21;100367.94;5053042;28;20103;-85
2021/12/24 11:23:27;;;;;;;35.20;16.95;;;;;;;7.69;90.36;100366.22;5053915;28;20084;-86
2021/12/24 11:25:56;;;;;;;46.65;18.38;;;;;;;7.71;90.35;100371.41;5053745;28;20021;-86
2021/12/24 11:28:26;;;;;;;41.80;18.15;;;;;;;7.70;90.58;100360.16;5059946;28;21705;-86
2021/12/24 11:30:54;;;;;;;38.35;17.42;;;;;;;7.72;90.48;100367.91;5056417;28;20059;-86
2021/12/24 11:33:24;;;;;;;42.08;18.67;;;;;;;7.74;90.26;100361.81;5058235;28;20386;-86
2021/12/24 11:35:52;;;;;;;39.72;18.90;;;;;;;7.74;90.33;100367.00;5067264;28;20470;-87
2021/12/24 11:38:20;;;;;;;40.05;19.75;;;;;;;7.74;90.24;100369.59;5052920;28;20087;-86
2021/12/24 11:40:47;;;;;;;40.47;19.63;;;;;;;7.77;90.24;100358.28;5052850;28;20025;-86
2021/12/24 11:43:13;;;;;;;44.28;18.98;;;;;;;7.78;90.17;100359.16;5052198;28;20021;-85
2021/12/24 11:45:38;;;;;;;40.95;20.60;;;;;;;7.80;90.21;100360.81;5053323;28;20021;-85
2021/12/24 11:48:05;;;;;;;41.40;18.90;;;;;;;7.81;89.75;100366.88;5053108;28;20032;-85
2021/12/24 11:50:32;;;;;;;40.60;19.30;;;;;;;7.80;90.20;100352.22;5054529;28;20029;-86
2021/12/24 11:53:07;;;;;;;41.28;21.58;;;;;;;7.83;90.04;100352.16;5053542;28;20036;-86
2021/12/24 11:55:41;;;;;;;43.17;20.08;;;;;;;7.84;90.16;100343.50;5058109;28;20012;-86
2021/12/24 11:58:14;;;;;;;43.70;19.08;;;;;;;7.85;89.85;100342.63;5064748;28;20087;-85
2021/12/24 12:00:43;;;;;;;41.72;20.17;;;;;;;7.87;89.76;100346.00;5036025;28;20375;-86
2021/12/24 12:03:10;;;;;;;42.17;20.27;;;;;;;7.88;89.69;100342.53;5035598;28;20021;-86
2021/12/24 12:05:41;;;;;;;49.00;21.77;;;;;;;7.87;89.70;100341.69;5036058;28;20043;-86
2021/12/24 12:08:25;;;;;;;43.88;21.27;;;;;;;7.93;89.70;100345.88;5046044;28;20458;-87
2021/12/24 12:11:06;;;;;;;50.05;23.55;;;;;;;7.92;89.69;100343.31;5044920;28;20032;-85
2021/12/24 12:13:40;;;;;;;;;;;;;;;8.00;89.67;100342.25;5047022;28;20032;-87
2021/12/24 12:16:08;;;;;;;49.00;22.98;;;;;;;7.96;89.23;100350.97;5046219;28;19917;-87
2021/12/24 12:19:01;;;;;;;48.03;22.13;;;;;;;7.98;88.96;100341.44;5046557;28;20040;-87
2021/12/24 12:21:40;;;;;;;48.05;23.27;;;;;;;8.01;89.23;100330.16;5046143;28;20052;-88
2021/12/24 12:26:37;;;;;;;47.22;22.92;;;;;;;8.03;89.04;100336.97;5046017;28;20044;-87
2021/12/24 12:29:26;;;;;;;47.50;24.23;;;;;;;8.10;88.90;100342.03;5045990;28;20036;-87
2021/12/24 12:32:12;;;;;;;50.05;24.23;;;;;;;8.09;88.80;100333.44;5045404;28;20525;-86
2021/12/24 12:34:38;;;;;;;45.47;23.92;;;;;;;8.11;89.00;100341.16;5045358;28;20479;-87
2021/12/24 12:37:18;;;;;;;47.08;24.85;;;;;;;8.13;88.94;100352.34;5045474;28;20060;-88
2021/12/24 12:39:45;;;;;;;51.78;27.38;;;;;;;8.11;88.95;100349.78;5044301;28;20090;-86
2021/12/24 12:42:13;;;;;;;48.72;24.50;;;;;;;8.13;88.85;100347.16;5045649;28;20037;-87
2021/12/24 12:44:41;;;;;;;44.00;23.25;;;;;;;8.12;88.36;100345.44;5029700;28;20053;-86
2021/12/24 12:47:10;;;;;;;42.10;24.05;;;;;;;8.11;88.46;100348.91;5044836;28;20032;-86
2021/12/24 12:49:36;;;;;;;47.47;25.65;;;;;;;8.10;88.75;100344.63;5044593;28;20037;-86
2021/12/24 12:52:06;;;;;;;53.80;25.75;;;;;;;8.10;88.75;100347.22;5045113;28;20036;-87
2021/12/24 12:54:37;;;;;;;55.13;24.98;;;;;;;8.11;88.58;100338.56;5044829;28;20126;-87
2021/12/24 12:57:20;;;;;;;47.28;25.25;;;;;;;8.10;88.60;100342.91;5045221;28;20032;-86
2021/12/24 13:00:07;;;;;;;48.03;25.42;;;;;;;8.11;89.16;100336.84;5046256;28;20483;-87